Time;durP1;ratioP1;P1;durP2;ratioP2;P2;SDS_P1;SDS_P2;PMS_P1;PMS_P2;Temp;Humidity;BMP_temperature;BMP_pressure;BME280_temperature;BME280_humidity;BME280_pressure;Samples;Min_cycle;Max_cycle;Signal;HPM_P1;HPM_P2
2020/12/09 00:00:20;;;;;;;68.22;32.35;;;;;;;8.26;53.49;100396.16;4979953;28;96923;-70
2020/12/09 00:02:47;;;;;;;58.40;31.42;;;;;;;8.26;53.38;100398.78;4984559;28;97928;-70
2020/12/09 00:05:15;;;;;;;58.35;30.50;;;;;;;8.26;53.33;100404.91;4978940;28;97288;-69
2020/12/09 00:07:42;;;;;;;64.10;31.83;;;;;;;8.26;53.49;100393.53;4984845;28;96887;-69
2020/12/09 00:10:11;;;;;;;62.65;31.42;;;;;;;8.27;53.35;100388.38;4977888;28;99896;-69
2020/12/09 00:12:39;;;;;;;59.60;30.95;;;;;;;8.28;53.39;100391.91;4981869;28;96758;-69
2020/12/09 00:15:07;;;;;;;57.70;31.25;;;;;;;8.28;53.47;100386.69;4979082;28;96761;-69
2020/12/09 00:17:35;;;;;;;56.38;31.75;;;;;;;8.28;53.36;100395.44;5000194;28;97549;-68
2020/12/09 00:20:04;;;;;;;60.45;30.45;;;;;;;8.29;53.27;100391.09;4984933;28;98116;-71
2020/12/09 00:22:34;;;;;;;64.50;31.45;;;;;;;8.32;53.26;100388.66;4983611;28;98301;-70
2020/12/09 00:25:03;;;;;;;59.28;30.20;;;;;;;8.31;53.26;100394.69;4983339;28;97284;-70
2020/12/09 00:27:32;;;;;;;55.90;30.10;;;;;;;8.33;53.29;100399.19;4983647;28;97066;-71
2020/12/09 00:30:01;;;;;;;62.28;31.73;;;;;;;8.35;53.38;100401.91;4980967;28;98509;-70
2020/12/09 00:32:29;;;;;;;59.10;30.35;;;;;;;8.34;53.33;100398.38;4983946;28;98368;-70
2020/12/09 00:34:56;;;;;;;60.83;32.15;;;;;;;8.35;53.27;100401.91;4980452;28;98009;-70
2020/12/09 00:37:24;;;;;;;65.35;32.90;;;;;;;8.34;53.31;100400.13;4981586;28;97825;-70
2020/12/09 00:39:51;;;;;;;60.78;31.63;;;;;;;8.36;53.27;100404.59;4980586;28;97930;-70
2020/12/09 00:42:18;;;;;;;62.10;31.80;;;;;;;8.38;53.36;100404.69;4981450;28;97820;-70
2020/12/09 00:44:47;;;;;;;63.42;31.30;;;;;;;8.36;53.06;100403.72;4982578;28;97159;-69
2020/12/09 00:47:14;;;;;;;57.47;29.90;;;;;;;8.37;53.28;100401.19;4978745;28;97135;-71
2020/12/09 00:52:24;;;;;;;56.97;29.90;;;;;;;8.41;53.65;100402.25;4979558;28;97195;-70
2020/12/09 00:54:55;;;;;;;59.58;30.35;;;;;;;8.40;53.65;100406.56;4978478;28;97327;-71
2020/12/09 00:57:23;;;;;;;65.60;31.67;;;;;;;8.42;53.29;100404.03;4997721;28;97562;-70
2020/12/09 00:59:51;;;;;;;64.30;31.15;;;;;;;8.43;53.29;100398.00;4994588;28;97292;-71
2020/12/09 01:02:22;;;;;;;58.28;29.83;;;;;;;8.45;52.83;100385.91;4978918;28;97930;-69
2020/12/09 01:04:50;;;;;;;56.67;31.70;;;;;;;8.45;53.53;100376.31;4979540;28;96785;-68
2020/12/09 01:07:18;;;;;;;61.30;30.88;;;;;;;8.46;53.11;100382.47;4977804;28;98290;-70
2020/12/09 01:09:46;;;;;;;62.03;32.35;;;;;;;8.46;53.79;100382.47;4981714;28;99315;-69
2020/12/09 01:12:13;;;;;;;64.07;31.55;;;;;;;8.46;53.18;100387.69;4986126;28;100407;-70
2020/12/09 01:14:41;;;;;;;59.58;29.88;;;;;;;8.47;52.68;100392.09;4986386;28;97210;-70
2020/12/09 01:17:09;;;;;;;60.55;31.45;;;;;;;8.45;53.20;100392.00;4981108;28;97402;-70
2020/12/09 01:19:37;;;;;;;59.25;30.77;;;;;;;8.45;53.43;100399.00;4984054;28;98031;-69
2020/12/09 01:22:05;;;;;;;64.25;32.53;;;;;;;8.46;53.47;100385.97;4977743;28;96697;-70
2020/12/09 01:24:33;;;;;;;58.60;32.50;;;;;;;8.46;53.20;100387.69;4985156;28;96924;-71
2020/12/09 01:27:00;;;;;;;58.10;31.55;;;;;;;8.48;53.36;100388.69;4981611;28;97311;-71
2020/12/09 01:29:28;;;;;;;57.45;29.83;;;;;;;8.47;53.37;100393.00;4980802;28;98980;-71
2020/12/09 01:31:58;;;;;;;57.28;30.10;;;;;;;8.49;53.03;100393.09;4984243;28;97237;-71
2020/12/09 01:34:28;;;;;;;58.38;31.10;;;;;;;8.52;52.95;100386.28;4982950;28;97177;-70
2020/12/09 01:36:56;;;;;;;60.00;31.83;;;;;;;8.53;53.30;100384.59;4987916;28;96858;-70
2020/12/09 01:39:24;;;;;;;62.03;29.92;;;;;;;8.53;53.35;100381.97;4984765;28;97949;-70
2020/12/09 01:41:51;;;;;;;62.55;31.73;;;;;;;8.54;52.96;100387.28;4979088;28;97334;-71
2020/12/09 01:44:19;;;;;;;65.63;31.88;;;;;;;8.55;53.10;100396.97;4981155;28;96779;-69
2020/12/09 01:46:48;;;;;;;58.72;29.98;;;;;;;8.55;53.57;100391.72;5001061;28;96769;-70
2020/12/09 01:49:15;;;;;;;59.65;30.75;;;;;;;8.56;53.08;100395.25;4982224;28;97908;-69
2020/12/09 01:51:44;;;;;;;61.00;31.75;;;;;;;8.57;53.20;100384.84;4977531;28;98121;-69
2020/12/09 01:54:11;;;;;;;59.92;29.80;;;;;;;8.58;52.99;100390.97;4975330;28;97353;-70
2020/12/09 01:56:39;;;;;;;59.78;29.70;;;;;;;8.60;53.29;100394.56;4985381;28;97261;-70
2020/12/09 01:59:06;;;;;;;57.72;31.30;;;;;;;8.60;53.19;100399.81;4986479;28;98051;-70
2020/12/09 02:01:34;;;;;;;60.85;31.33;;;;;;;8.61;53.32;100399.00;4985516;28;98027;-70
2020/12/09 02:04:02;;;;;;;55.60;29.63;;;;;;;8.62;53.26;100408.66;4988183;28;96934;-71
2020/12/09 02:06:29;;;;;;;58.80;32.15;;;;;;;8.62;53.08;100412.19;4986520;28;97313;-71
2020/12/09 02:08:57;;;;;;;59.88;31.25;;;;;;;8.63;53.04;100405.22;4977865;28;98167;-71
2020/12/09 02:11:24;;;;;;;61.20;30.13;;;;;;;8.65;53.45;100408.84;4986212;28;98317;-71
2020/12/09 02:13:52;;;;;;;62.35;30.60;;;;;;;8.64;52.95;100407.00;4984692;28;97598;-70
2020/12/09 02:16:19;;;;;;;63.22;31.52;;;;;;;8.62;52.95;100401.69;4984255;28;96644;-70
2020/12/09 02:18:46;;;;;;;56.10;29.42;;;;;;;8.62;52.93;100398.19;4979333;28;99142;-71
2020/12/09 02:21:14;;;;;;;64.10;33.47;;;;;;;8.62;53.29;100406.03;4979916;28;98076;-71
2020/12/09 02:23:42;;;;;;;60.80;32.42;;;;;;;8.63;52.98;100405.22;4988572;28;96831;-70
2020/12/09 02:26:10;;;;;;;64.03;31.33;;;;;;;8.64;53.24;100407.00;4979095;28;97522;-71
2020/12/09 02:28:37;;;;;;;58.28;30.85;;;;;;;8.65;53.24;100408.84;4987076;28;97432;-69
2020/12/09 02:31:05;;;;;;;64.28;31.00;;;;;;;8.63;53.13;100400.88;4973446;28;96680;-70
2020/12/09 02:33:33;;;;;;;54.53;30.83;;;;;;;8.64;53.38;100401.78;4980061;28;97596;-71
2020/12/09 02:36:00;;;;;;;56.65;29.60;;;;;;;8.63;53.21;100395.63;4989247;28;96741;-70
2020/12/09 02:38:28;;;;;;;63.00;31.23;;;;;;;8.65;53.30;100395.75;4977294;28;97113;-70
2020/12/09 02:40:56;;;;;;;59.25;30.98;;;;;;;8.66;53.29;100397.53;4987514;28;99073;-70
2020/12/09 02:43:24;;;;;;;61.80;31.65;;;;;;;8.67;53.42;100397.59;4985585;28;96896;-70
2020/12/09 02:45:51;;;;;;;63.45;31.85;;;;;;;8.70;53.07;100396.88;5003788;28;96790;-69
2020/12/09 02:48:38;;;;;;;57.50;29.38;;;;;;;8.67;53.18;100397.59;4979334;28;96807;-70
2020/12/09 02:51:05;;;;;;;63.55;32.28;;;;;;;8.69;53.05;100387.22;4980845;28;99163;-69
2020/12/09 02:53:33;;;;;;;65.45;31.77;;;;;;;8.70;53.29;100378.56;4993416;28;97530;-69
2020/12/09 02:56:01;;;;;;;60.67;31.88;;;;;;;8.70;53.14;100378.56;4987525;28;96959;-70
2020/12/09 02:58:29;;;;;;;78.50;42.37;;;;;;;8.96;52.71;100386.97;4986134;28;97545;-69
2020/12/09 03:00:57;;;;;;;66.15;32.88;;;;;;;8.84;53.10;100377.56;4983577;28;102153;-70
2020/12/09 03:03:24;;;;;;;65.70;32.42;;;;;;;8.81;53.15;100382.66;4981232;28;97171;-69
2020/12/09 03:05:52;;;;;;;58.20;30.23;;;;;;;8.81;53.26;100380.91;4986234;28;97783;-70
2020/12/09 03:08:22;;;;;;;63.20;32.55;;;;;;;8.82;53.13;100376.59;4985204;28;100456;-69
2020/12/09 03:10:49;;;;;;;60.22;32.30;;;;;;;8.81;53.35;100377.41;4983505;28;97403;-69
2020/12/09 03:13:18;;;;;;;63.00;31.45;;;;;;;8.80;53.47;100367.75;4988153;28;96721;-69
2020/12/09 03:15:45;;;;;;;65.28;33.95;;;;;;;8.82;53.56;100384.44;4981552;28;97395;-70
2020/12/09 03:18:13;;;;;;;60.75;31.35;;;;;;;8.82;53.14;100381.81;4986795;28;97883;-70
2020/12/09 03:20:41;;;;;;;56.85;30.42;;;;;;;8.82;53.21;100381.81;4998381;28;98134;-68
2020/12/09 03:23:08;;;;;;;66.00;31.85;;;;;;;8.83;53.05;100381.03;4987641;28;96723;-69
2020/12/09 03:25:36;;;;;;;59.97;31.83;;;;;;;8.82;53.24;100382.72;4988060;28;97210;-69
2020/12/09 03:28:03;;;;;;;63.05;31.23;;;;;;;8.84;53.16;100385.44;4979764;28;98739;-70
2020/12/09 03:30:31;;;;;;;61.08;31.77;;;;;;;8.83;53.49;100386.25;4985522;28;97939;-70
2020/12/09 03:33:17;;;;;;;56.13;30.92;;;;;;;8.85;52.95;100387.25;4985248;28;96982;-69
2020/12/09 03:35:44;;;;;;;62.45;31.10;;;;;;;8.84;53.45;100390.66;4977823;28;96826;-70
2020/12/09 03:38:12;;;;;;;61.92;31.42;;;;;;;8.86;52.97;100389.03;4982517;28;99069;-70
2020/12/09 03:40:40;;;;;;;65.00;31.65;;;;;;;8.88;53.16;100387.41;4999083;28;99206;-70
2020/12/09 03:43:07;;;;;;;56.08;30.90;;;;;;;8.86;53.86;100391.66;4986118;28;97135;-69
2020/12/09 03:45:35;;;;;;;57.92;31.33;;;;;;;8.87;53.25;100393.44;4986252;28;96779;-69
2020/12/09 03:48:04;;;;;;;58.13;30.90;;;;;;;8.85;53.20;100405.56;4984447;28;99159;-70
2020/12/09 03:50:31;;;;;;;57.65;29.63;;;;;;;8.86;53.17;100417.84;4986801;28;97741;-70
2020/12/09 03:52:59;;;;;;;59.08;30.83;;;;;;;8.86;53.36;100417.84;4984167;28;97178;-70
2020/12/09 03:55:26;;;;;;;61.58;31.20;;;;;;;8.86;53.11;100417.84;4982816;28;96888;-70
2020/12/09 03:57:55;;;;;;;57.60;29.75;;;;;;;8.87;53.22;100417.91;4976349;28;98866;-70
2020/12/09 04:00:23;;;;;;;60.90;30.65;;;;;;;8.88;53.06;100408.34;4983730;28;97543;-70
2020/12/09 04:02:51;;;;;;;58.50;31.88;;;;;;;8.90;53.05;100419.81;4977992;28;97099;-70
2020/12/09 04:05:19;;;;;;;60.58;31.40;;;;;;;8.90;53.25;100435.53;4978555;28;97547;-69
2020/12/09 04:07:46;;;;;;;67.88;32.15;;;;;;;8.91;53.43;100421.59;4975811;28;98067;-69
2020/12/09 04:10:14;;;;;;;78.53;40.92;;;;;;;8.91;52.80;100405.88;4979050;28;97483;-71
2020/12/09 04:12:41;;;;;;;68.60;34.33;;;;;;;8.92;52.89;100394.59;4979646;28;97285;-70
2020/12/09 04:15:09;;;;;;;60.22;30.23;;;;;;;8.92;53.06;100394.59;4985538;28;97343;-70
2020/12/09 04:17:36;;;;;;;60.78;31.35;;;;;;;8.90;53.52;100398.84;4980882;28;97127;-69
2020/12/09 04:20:06;;;;;;;58.55;30.27;;;;;;;8.90;53.37;100393.63;4980271;28;96789;-69
2020/12/09 04:22:33;;;;;;;62.22;31.33;;;;;;;8.89;53.13;100397.03;4984649;28;97321;-69
2020/12/09 04:25:01;;;;;;;56.42;30.45;;;;;;;8.90;53.63;100396.25;4988943;28;97064;-70
2020/12/09 04:27:29;;;;;;;70.38;32.83;;;;;;;8.89;53.35;100407.50;4981429;28;97247;-69
2020/12/09 04:29:56;;;;;;;63.97;31.65;;;;;;;8.90;53.11;100411.94;4983953;28;97236;-70
2020/12/09 04:32:24;;;;;;;80.38;43.70;;;;;;;9.16;52.68;100417.75;4985259;28;96772;-70
2020/12/09 04:34:51;;;;;;;67.32;32.35;;;;;;;9.02;53.30;100412.59;4987680;28;97221;-69
2020/12/09 04:37:20;;;;;;;64.40;33.78;;;;;;;8.97;53.46;100415.00;4985862;28;98080;-69
2020/12/09 04:39:49;;;;;;;66.93;31.48;;;;;;;8.95;53.43;100410.47;4983362;28;97321;-69
2020/12/09 04:42:18;;;;;;;62.25;31.83;;;;;;;8.91;53.71;100412.03;4983377;28;97418;-69
2020/12/09 04:44:46;;;;;;;67.25;32.58;;;;;;;8.92;53.32;100405.97;4985568;28;97157;-69
2020/12/09 04:47:17;;;;;;;60.22;31.40;;;;;;;8.91;53.48;100398.94;4981074;28;97159;-69
2020/12/09 04:49:47;;;;;;;60.78;31.05;;;;;;;8.90;53.53;100397.16;4982624;28;96738;-69
2020/12/09 04:52:32;;;;;;;62.17;32.08;;;;;;;8.88;53.38;100403.09;4981664;28;97139;-69
2020/12/09 04:55:05;;;;;;;58.83;29.63;;;;;;;8.87;53.64;100394.34;4982730;28;97546;-69
2020/12/09 04:57:42;;;;;;;63.60;32.28;;;;;;;8.85;54.05;100402.97;4984401;28;96777;-69
2020/12/09 05:00:11;;;;;;;64.70;32.45;;;;;;;8.85;53.39;100403.84;4981872;28;98078;-69
2020/12/09 05:02:45;;;;;;;63.90;31.77;;;;;;;8.84;53.63;100403.75;4974357;28;97414;-70
2020/12/09 05:05:14;;;;;;;63.30;32.13;;;;;;;8.84;53.40;100409.00;4979829;28;97383;-68
2020/12/09 05:07:46;;;;;;;67.32;33.45;;;;;;;8.84;53.59;100406.38;4983406;28;99574;-70
2020/12/09 05:10:14;;;;;;;63.90;33.88;;;;;;;8.84;53.83;100403.75;4983182;28;99164;-70
2020/12/09 05:12:43;;;;;;;64.72;32.05;;;;;;;8.84;53.34;100396.81;4977627;28;97459;-69
2020/12/09 05:15:15;;;;;;;65.10;31.88;;;;;;;8.84;53.31;100401.13;4981297;28;96743;-69
2020/12/09 05:18:04;;;;;;;61.60;31.60;;;;;;;8.81;54.00;100416.69;4984181;28;99639;-69
2020/12/09 05:20:34;;;;;;;59.22;31.08;;;;;;;8.81;53.63;100416.69;4973618;28;97970;-69
2020/12/09 05:23:04;;;;;;;56.03;31.70;;;;;;;8.81;53.62;100412.34;4977225;28;96969;-70
2020/12/09 05:25:34;;;;;;;61.08;30.88;;;;;;;8.81;53.94;100407.09;4981615;28;97745;-69
2020/12/09 05:28:02;;;;;;;61.55;32.28;;;;;;;8.80;53.43;100412.25;4983256;28;97542;-69
2020/12/09 05:30:40;;;;;;;60.72;33.35;;;;;;;8.81;53.47;100408.84;4983936;28;101391;-69
2020/12/09 05:33:08;;;;;;;60.95;32.55;;;;;;;8.79;53.40;100419.25;4982317;28;97700;-69
2020/12/09 05:35:35;;;;;;;59.67;31.20;;;;;;;8.79;53.72;100426.19;4983296;28;96842;-69
2020/12/09 05:38:12;;;;;;;58.47;31.65;;;;;;;8.78;53.61;100426.97;4986251;28;102175;-68
2020/12/09 05:40:41;;;;;;;63.85;30.95;;;;;;;8.79;53.74;100429.72;4984738;28;98013;-69
2020/12/09 05:43:09;;;;;;;57.38;29.77;;;;;;;8.78;54.17;100417.41;4986906;28;96765;-69
2020/12/09 05:45:36;;;;;;;58.08;31.65;;;;;;;8.78;53.52;100426.97;4984972;28;96784;-69
2020/12/09 05:48:18;;;;;;;63.33;31.45;;;;;;;8.75;53.48;100432.06;4983998;28;98971;-69
2020/12/09 05:50:48;;;;;;;58.42;30.35;;;;;;;8.77;53.89;100435.69;4986804;28;97843;-68
2020/12/09 05:53:18;;;;;;;62.67;31.27;;;;;;;8.77;53.64;100433.06;4981211;28;97282;-69
2020/12/09 05:55:46;;;;;;;57.58;30.42;;;;;;;8.77;53.83;100433.06;4982472;28;97616;-70
2020/12/09 05:58:26;;;;;;;58.03;29.92;;;;;;;8.74;53.84;100440.75;5011690;22;98706;-73
2020/12/09 06:01:22;;;;;;;59.30;29.30;;;;;;;8.72;53.77;100453.75;5024649;27;99427;-72
2020/12/09 06:03:50;;;;;;;59.40;30.45;;;;;;;8.75;53.92;100442.53;4990468;27;97482;-73
2020/12/09 06:06:21;;;;;;;60.28;31.27;;;;;;;8.74;53.67;100443.38;5026335;28;96780;-73
2020/12/09 06:08:50;;;;;;;55.45;29.88;;;;;;;8.73;53.54;100438.94;5024336;27;98443;-73
2020/12/09 06:11:19;;;;;;;55.47;30.88;;;;;;;8.74;53.61;100435.53;5024104;28;99086;-73
2020/12/09 06:13:47;;;;;;;59.95;30.55;;;;;;;8.75;54.04;100442.53;5020473;28;97339;-73
2020/12/09 06:16:17;;;;;;;61.42;31.27;;;;;;;8.74;53.67;100443.38;5021138;27;97557;-74
2020/12/09 06:18:46;;;;;;;53.75;28.92;;;;;;;8.74;53.93;100456.47;5019697;28;97875;-72
2020/12/09 06:21:14;;;;;;;58.75;29.52;;;;;;;8.72;54.04;100453.75;5017935;28;97245;-73
2020/12/09 06:23:42;;;;;;;55.85;29.73;;;;;;;8.72;53.67;100456.34;5018652;28;96883;-73
2020/12/09 06:26:11;;;;;;;57.55;30.25;;;;;;;8.73;53.76;100462.50;5021339;27;96964;-73
2020/12/09 06:28:44;;;;;;;52.50;30.27;;;;;;;8.72;53.76;100460.72;5019561;28;96871;-73
2020/12/09 06:31:13;;;;;;;57.25;30.25;;;;;;;8.73;53.83;100459.88;5016545;28;99610;-73
2020/12/09 06:33:43;;;;;;;57.67;30.42;;;;;;;8.74;53.93;100461.69;5018150;27;97236;-72
2020/12/09 06:36:15;;;;;;;57.53;28.98;;;;;;;8.72;53.95;100456.34;5016851;28;97314;-74
2020/12/09 06:39:15;;;;;;;54.83;31.02;;;;;;;8.72;53.72;100463.34;5022556;27;97901;-74
2020/12/09 06:42:09;;;;;;;58.13;30.13;;;;;;;8.72;54.01;100464.22;5026336;28;98172;-73
2020/12/09 06:44:48;;;;;;;53.33;28.27;;;;;;;8.74;53.58;100472.19;5024673;27;97250;-72
2020/12/09 06:47:16;;;;;;;57.08;30.27;;;;;;;8.77;53.72;100477.56;5018090;28;96860;-74
2020/12/09 06:49:45;;;;;;;59.53;29.85;;;;;;;8.76;53.68;100470.50;5024993;28;98333;-72
2020/12/09 06:52:36;;;;;;;56.83;29.63;;;;;;;8.75;53.77;100484.44;5023358;28;97747;-73
2020/12/09 06:55:05;;;;;;;54.10;28.77;;;;;;;8.75;53.79;100485.34;5020241;27;97221;-72
2020/12/09 06:57:36;;;;;;;63.05;31.42;;;;;;;8.75;54.04;100489.69;5022271;27;97061;-73
2020/12/09 07:00:22;;;;;;;60.53;31.05;;;;;;;8.74;53.93;100488.75;5020505;28;97897;-73
2020/12/09 07:02:53;;;;;;;61.47;31.00;;;;;;;8.77;54.25;100501.13;5027030;27;98163;-73
2020/12/09 07:05:26;;;;;;;60.08;30.85;;;;;;;8.76;53.73;100508.09;5021149;27;96680;-73
2020/12/09 07:08:00;;;;;;;56.70;28.98;;;;;;;8.78;54.23;100506.47;5022670;27;97448;-73
2020/12/09 07:10:30;;;;;;;58.08;30.63;;;;;;;8.78;53.82;100510.78;5012289;28;98959;-73
2020/12/09 07:13:07;;;;;;;57.55;29.90;;;;;;;8.77;53.97;100509.91;5023788;28;97832;-72
2020/12/09 07:15:36;;;;;;;60.65;29.50;;;;;;;8.79;53.78;100507.38;5021785;28;96933;-73
2020/12/09 07:18:05;;;;;;;53.97;29.92;;;;;;;8.80;53.40;100509.16;5025837;27;97304;-73
2020/12/09 07:20:34;;;;;;;58.72;30.92;;;;;;;8.79;53.80;100499.50;5027288;27;98346;-72
2020/12/09 07:23:03;;;;;;;56.50;29.13;;;;;;;8.79;53.99;100507.38;5022510;27;98203;-72
2020/12/09 07:25:30;;;;;;;66.65;31.45;;;;;;;8.80;53.68;100510.06;5026308;27;97992;-72
2020/12/09 07:27:58;;;;;;;57.22;30.15;;;;;;;8.82;53.64;100516.28;5020228;27;97874;-73
2020/12/09 07:30:26;;;;;;;57.78;30.90;;;;;;;8.82;53.63;100516.28;5019456;27;96826;-74
2020/12/09 07:33:15;;;;;;;57.25;30.17;;;;;;;8.81;53.99;100511.84;5016543;28;97243;-74
2020/12/09 07:35:43;;;;;;;58.03;30.08;;;;;;;8.82;53.99;100528.47;5025510;27;97003;-74
2020/12/09 07:38:12;;;;;;;55.53;29.70;;;;;;;8.84;53.81;100526.84;5027706;27;96908;-75
2020/12/09 07:40:39;;;;;;;58.63;30.90;;;;;;;8.83;53.58;100536.41;5021478;27;98191;-74
2020/12/09 07:43:09;;;;;;;58.63;30.02;;;;;;;8.85;53.60;100531.28;5023350;27;97939;-73
2020/12/09 07:45:40;;;;;;;56.45;30.38;;;;;;;8.85;53.87;100532.16;5024950;28;97274;-74
2020/12/09 07:48:09;;;;;;;57.33;29.98;;;;;;;8.86;53.63;100535.69;5023471;27;96715;-74
2020/12/09 07:50:38;;;;;;;56.20;29.55;;;;;;;8.85;53.64;100526.03;5025624;27;98225;-74
2020/12/09 07:53:10;;;;;;;61.00;29.77;;;;;;;8.84;54.02;100522.53;5027512;27;98160;-73
2020/12/09 07:55:38;;;;;;;53.55;29.20;;;;;;;8.85;53.95;100503.34;5024769;27;96888;-73
2020/12/09 07:58:07;;;;;;;52.33;28.70;;;;;;;8.86;53.90;100499.03;5023892;28;98170;-74
2020/12/09 08:00:39;;;;;;;51.45;28.02;;;;;;;8.86;53.83;100499.03;5026429;27;97850;-74
2020/12/09 08:03:17;;;;;;;55.60;29.55;;;;;;;8.84;54.30;100498.94;5025334;27;99365;-73
2020/12/09 08:05:44;;;;;;;55.53;29.00;;;;;;;8.85;54.07;100507.72;5023297;27;96829;-74
2020/12/09 08:08:13;;;;;;;52.15;28.10;;;;;;;8.85;53.77;100513.81;5024153;27;96800;-73
2020/12/09 08:10:43;;;;;;;52.60;28.38;;;;;;;8.86;54.03;100510.41;5022107;27;99035;-73
2020/12/09 08:13:13;;;;;;;49.95;28.13;;;;;;;8.83;53.99;100512.84;5023403;27;100931;-73
2020/12/09 08:15:42;;;;;;;52.88;28.20;;;;;;;8.83;54.22;100525.06;5024055;27;97126;-74
2020/12/09 08:18:23;;;;;;;51.35;27.00;;;;;;;8.80;54.23;100519.63;5025759;27;97279;-73
2020/12/09 08:20:51;;;;;;;47.15;27.02;;;;;;;8.81;54.04;100524.06;5018865;27;102559;-74
2020/12/09 08:23:19;;;;;;;55.47;28.92;;;;;;;8.83;53.78;100530.28;5026355;27;102278;-74
2020/12/09 08:25:48;;;;;;;59.00;27.80;;;;;;;8.82;54.15;100529.38;5025738;28;96860;-74
2020/12/09 08:28:20;;;;;;;54.33;28.40;;;;;;;8.82;53.78;100538.94;5026664;28;97208;-73
2020/12/09 08:30:48;;;;;;;58.15;28.58;;;;;;;8.82;53.92;100546.81;5023272;28;98109;-73
2020/12/09 08:33:19;;;;;;;50.67;28.33;;;;;;;8.83;53.95;100544.25;5017168;28;97983;-73
2020/12/09 08:36:00;;;;;;;52.78;27.83;;;;;;;8.82;54.00;100545.09;5017505;27;96890;-74
2020/12/09 08:38:30;;;;;;;52.28;28.40;;;;;;;8.84;54.17;100540.84;5022702;27;97563;-74
2020/12/09 08:41:16;;;;;;;49.15;26.52;;;;;;;8.89;54.36;100533.22;5018906;28;96803;-73
2020/12/09 08:43:46;;;;;;;50.90;27.15;;;;;;;8.89;53.97;100531.53;5022013;28;98089;-74
2020/12/09 08:46:15;;;;;;;51.95;28.73;;;;;;;8.87;53.81;100533.16;5018417;27;97280;-74
2020/12/09 08:48:43;;;;;;;56.25;30.55;;;;;;;8.89;53.75;100528.00;5019524;28;97327;-74
2020/12/09 08:51:11;;;;;;;54.55;30.33;;;;;;;8.92;54.20;100534.31;5016049;27;98136;-73
2020/12/09 08:53:38;;;;;;;52.17;28.92;;;;;;;8.96;54.20;100535.38;5024242;27;98080;-74
2020/12/09 08:56:06;;;;;;;61.65;29.23;;;;;;;8.98;54.06;100537.28;5023633;28;97323;-74
2020/12/09 08:58:34;;;;;;;52.30;27.98;;;;;;;9.01;53.64;100541.78;5019192;27;96856;-73
2020/12/09 09:01:02;;;;;;;55.00;27.35;;;;;;;9.01;53.80;100541.78;5020418;27;98254;-72
2020/12/09 09:03:36;;;;;;;50.55;27.30;;;;;;;9.02;54.05;100538.34;5015701;27;97852;-74
2020/12/09 09:06:04;;;;;;;51.90;28.83;;;;;;;9.01;53.65;100534.81;5024839;28;96749;-73
2020/12/09 09:08:31;;;;;;;56.47;29.25;;;;;;;9.04;53.60;100536.72;5022596;27;97247;-74
2020/12/09 09:11:22;;;;;;;55.38;29.88;;;;;;;9.02;54.04;100538.34;5018533;28;98295;-73
2020/12/09 09:13:49;;;;;;;53.50;27.40;;;;;;;9.04;54.03;100552.44;5035972;27;97961;-74
2020/12/09 09:16:17;;;;;;;54.97;27.98;;;;;;;9.04;53.61;100549.81;5016190;28;96746;-75
2020/12/09 09:18:46;;;;;;;56.30;28.08;;;;;;;9.04;54.05;100541.94;5015154;28;97679;-74
2020/12/09 09:21:14;;;;;;;48.08;28.38;;;;;;;9.05;53.72;100543.78;5022851;28;98742;-73
2020/12/09 09:23:42;;;;;;;56.83;29.92;;;;;;;9.05;53.66;100544.66;5025219;27;97746;-74
2020/12/09 09:26:13;;;;;;;54.38;27.95;;;;;;;9.08;54.07;100546.53;5020539;27;97924;-73
2020/12/09 09:28:40;;;;;;;56.72;29.65;;;;;;;9.09;54.21;100551.88;5023224;28;96986;-73
2020/12/09 09:31:08;;;;;;;55.20;29.65;;;;;;;9.07;53.71;100553.50;5022879;27;97872;-74
2020/12/09 09:33:38;;;;;;;56.17;29.05;;;;;;;9.11;53.62;100551.94;5023187;27;98976;-74
2020/12/09 09:36:07;;;;;;;59.45;29.58;;;;;;;9.11;54.38;100549.31;5014091;28;96905;-73
2020/12/09 09:38:35;;;;;;;58.72;31.23;;;;;;;9.13;54.09;100553.84;5018888;28;96690;-72
2020/12/09 09:41:02;;;;;;;61.85;29.33;;;;;;;9.17;53.37;100560.16;5019563;28;97192;-73
2020/12/09 09:43:30;;;;;;;60.85;29.55;;;;;;;9.16;53.70;100568.81;5024908;28;98461;-74
2020/12/09 09:45:59;;;;;;;54.90;27.98;;;;;;;9.15;53.62;100562.69;5023401;27;97007;-74
2020/12/09 09:48:29;;;;;;;63.13;30.35;;;;;;;9.15;53.63;100567.03;5021181;27;97249;-73
2020/12/09 09:50:56;;;;;;;58.80;27.95;;;;;;;9.14;53.50;100573.97;5019148;28;99164;-73
2020/12/09 09:53:24;;;;;;;68.28;30.80;;;;;;;9.14;53.78;100570.47;5024327;28;99468;-74
2020/12/09 09:56:11;;;;;;;54.90;28.25;;;;;;;9.16;53.74;100563.56;5018405;28;97344;-74
2020/12/09 09:58:38;;;;;;;65.45;31.45;;;;;;;9.16;53.68;100560.94;5025054;27;97494;-74
2020/12/09 10:01:07;;;;;;;60.40;30.42;;;;;;;9.18;53.93;100561.94;5023890;27;97913;-74
2020/12/09 10:03:34;;;;;;;54.45;28.40;;;;;;;9.19;53.46;100558.53;5023762;27;99135;-74
2020/12/09 10:06:03;;;;;;;58.70;29.65;;;;;;;9.21;54.02;100554.25;5022158;27;96832;-74
2020/12/09 10:08:50;;;;;;;54.03;27.50;;;;;;;9.23;54.15;100554.34;5024425;28;96769;-74
2020/12/09 10:11:17;;;;;;;60.70;29.00;;;;;;;9.24;53.32;100557.03;5025010;27;98025;-74
2020/12/09 10:13:45;;;;;;;63.90;29.67;;;;;;;9.26;53.87;100555.41;5017543;27;98508;-74
2020/12/09 10:16:12;;;;;;;56.45;29.38;;;;;;;9.28;53.29;100559.03;5016037;27;97363;-73
2020/12/09 10:18:40;;;;;;;55.53;29.00;;;;;;;9.30;53.48;100557.38;5013649;27;97906;-73
2020/12/09 10:21:08;;;;;;;57.00;30.17;;;;;;;9.29;53.31;100559.94;5014423;28;96897;-73
2020/12/09 10:23:35;;;;;;;64.43;30.73;;;;;;;9.29;53.77;100559.94;5018377;28;99035;-72
2020/12/09 10:26:04;;;;;;;59.40;30.60;;;;;;;9.29;53.73;100565.16;5021968;27;97302;-73
2020/12/09 10:28:33;;;;;;;58.05;30.40;;;;;;;9.29;53.94;100552.06;5013878;28;97309;-73
2020/12/09 10:31:05;;;;;;;60.03;31.77;;;;;;;9.31;53.33;100551.31;5001362;28;99669;-73
2020/12/09 10:33:33;;;;;;;58.13;30.67;;;;;;;9.31;53.92;100559.16;5023014;28;99572;-73
2020/12/09 10:36:00;;;;;;;61.65;30.17;;;;;;;9.32;54.01;100558.38;5016368;27;96978;-73
2020/12/09 10:38:28;;;;;;;60.17;29.05;;;;;;;9.34;53.57;100554.13;5002162;28;97330;-74
2020/12/09 10:40:55;;;;;;;58.97;28.95;;;;;;;9.36;53.54;100551.56;5007984;28;97885;-73
2020/12/09 10:43:24;;;;;;;66.40;31.38;;;;;;;9.36;53.97;100557.69;5021155;28;98133;-74
2020/12/09 10:46:03;;;;;;;64.85;30.73;;;;;;;9.36;54.02;100554.19;5024362;27;97070;-73
2020/12/09 10:48:30;;;;;;;66.13;31.77;;;;;;;9.37;53.64;100551.66;5016225;27;96883;-73
2020/12/09 10:50:57;;;;;;;63.25;31.35;;;;;;;9.38;53.96;100556.06;5021333;27;98083;-74
2020/12/09 10:53:25;;;;;;;60.55;32.53;;;;;;;9.39;54.01;100557.88;5022364;28;98139;-74
2020/12/09 10:56:10;;;;;;;67.68;31.70;;;;;;;9.40;53.61;100564.91;5024174;27;96529;-74
2020/12/09 10:58:39;;;;;;;70.03;32.70;;;;;;;9.39;53.99;100557.88;5023582;27;97301;-73
2020/12/09 11:01:06;;;;;;;64.65;31.35;;;;;;;9.42;54.01;100557.13;5020233;27;97953;-74
2020/12/09 11:03:34;;;;;;;57.45;29.67;;;;;;;9.43;53.67;100564.19;5020112;27;98857;-72
2020/12/09 11:06:02;;;;;;;69.15;31.50;;;;;;;9.42;53.83;100563.28;5014513;28;96664;-73
2020/12/09 11:08:29;;;;;;;64.78;32.97;;;;;;;9.45;53.68;100558.19;5019439;27;96913;-74
2020/12/09 11:10:57;;;;;;;64.07;32.33;;;;;;;9.43;53.63;100556.31;5017359;28;97826;-73
2020/12/09 11:13:24;;;;;;;111.95;53.58;;;;;;;9.43;53.70;100554.63;5018062;28;98008;-73
2020/12/09 11:15:52;;;;;;;121.85;56.28;;;;;;;9.42;53.89;100558.03;5015228;28;96832;-74
2020/12/09 11:18:20;;;;;;;99.85;47.35;;;;;;;9.43;53.80;100557.22;5014565;28;97310;-74
2020/12/09 11:20:47;;;;;;;66.25;32.72;;;;;;;9.44;53.82;100561.63;5016415;28;99142;-73
2020/12/09 11:23:15;;;;;;;62.83;31.52;;;;;;;9.44;53.54;100561.63;5017958;27;97853;-74
2020/12/09 11:25:42;;;;;;;72.82;33.58;;;;;;;9.46;53.66;100565.25;5022508;28;96708;-74
2020/12/09 11:28:10;;;;;;;68.38;33.22;;;;;;;9.46;53.59;100560.00;5015212;27;97146;-74
2020/12/09 11:30:39;;;;;;;62.33;31.60;;;;;;;9.47;53.57;100567.03;5018493;27;98923;-74